Lakeside, Virginia
Current Conditions -  °F | °C
As of 7:54 PM on Sunday 21 Dec 2014 (Local Time) from KOFP Reporting Station
Clear Clear  
Wind Chill: 30°   Ceiling: Unl
Heat Index: 30°   Visibility: 10mi
Dew Point: 26°   Wind: 3mph
Humidity: 85%   Direction: 60°ENE
Pressure: 30.32"   Gusts: NA
Location:  37.61°N, 77.48°W
Report Text: KOFP 220054Z AUTO 06003KT 10SM CLR M01/M03 A3032 RMK AO2 SLP268 T10111033
Loading
Personal Weather Stations






























Interactive Weather Map New forecast layout! Learn more

10-Day Weather Forecast

Advertisements
Track Severe Weather on mobile